sensor_id;sensor_type;location;lat;lon;timestamp;P1;durP1;ratioP1;P2;durP2;ratioP2
42198;SDS011;27868;45.184;5.786;2023-03-11T00:00:05;2.90;;;1.20;;
42198;SDS011;27868;45.184;5.786;2023-03-11T00:02:57;3.63;;;1.42;;
42198;SDS011;27868;45.184;5.786;2023-03-11T00:05:43;1.67;;;1.00;;
42198;SDS011;27868;45.184;5.786;2023-03-11T00:08:28;3.95;;;1.52;;
42198;SDS011;27868;45.184;5.786;2023-03-11T00:11:13;2.47;;;1.00;;
42198;SDS011;27868;45.184;5.786;2023-03-11T00:13:58;2.60;;;0.93;;
42198;SDS011;27868;45.184;5.786;2023-03-11T00:16:43;3.67;;;1.20;;
42198;SDS011;27868;45.184;5.786;2023-03-11T00:19:27;3.65;;;1.02;;
42198;SDS011;27868;45.184;5.786;2023-03-11T00:22:12;3.92;;;1.40;;
42198;SDS011;27868;45.184;5.786;2023-03-11T00:24:56;3.83;;;1.92;;
42198;SDS011;27868;45.184;5.786;2023-03-11T00:27:41;4.03;;;1.85;;
42198;SDS011;27868;45.184;5.786;2023-03-11T00:30:26;3.70;;;1.40;;
42198;SDS011;27868;45.184;5.786;2023-03-11T00:33:12;2.80;;;1.52;;
42198;SDS011;27868;45.184;5.786;2023-03-11T00:35:58;3.55;;;1.80;;
42198;SDS011;27868;45.184;5.786;2023-03-11T00:38:43;4.07;;;1.65;;
42198;SDS011;27868;45.184;5.786;2023-03-11T00:41:28;4.68;;;1.98;;
42198;SDS011;27868;45.184;5.786;2023-03-11T00:44:12;5.22;;;1.73;;
42198;SDS011;27868;45.184;5.786;2023-03-11T00:46:56;3.67;;;1.67;;
42198;SDS011;27868;45.184;5.786;2023-03-11T00:49:41;3.85;;;1.58;;
42198;SDS011;27868;45.184;5.786;2023-03-11T00:52:26;5.70;;;1.65;;
42198;SDS011;27868;45.184;5.786;2023-03-11T00:55:13;3.30;;;1.30;;
42198;SDS011;27868;45.184;5.786;2023-03-11T00:58:03;3.30;;;1.02;;
42198;SDS011;27868;45.184;5.786;2023-03-11T01:00:48;2.40;;;1.13;;
42198;SDS011;27868;45.184;5.786;2023-03-11T01:03:33;2.42;;;1.10;;
42198;SDS011;27868;45.184;5.786;2023-03-11T01:06:19;2.75;;;1.00;;
42198;SDS011;27868;45.184;5.786;2023-03-11T01:09:04;1.95;;;1.10;;
42198;SDS011;27868;45.184;5.786;2023-03-11T01:11:49;3.20;;;1.10;;
42198;SDS011;27868;45.184;5.786;2023-03-11T01:14:34;2.90;;;1.20;;
42198;SDS011;27868;45.184;5.786;2023-03-11T01:17:19;4.47;;;1.08;;
42198;SDS011;27868;45.184;5.786;2023-03-11T01:20:05;4.82;;;1.38;;
42198;SDS011;27868;45.184;5.786;2023-03-11T01:22:52;3.83;;;1.35;;
42198;SDS011;27868;45.184;5.786;2023-03-11T01:25:36;2.40;;;1.23;;
42198;SDS011;27868;45.184;5.786;2023-03-11T01:28:21;2.63;;;1.40;;
42198;SDS011;27868;45.184;5.786;2023-03-11T01:31:05;3.00;;;1.67;;
42198;SDS011;27868;45.184;5.786;2023-03-11T01:33:52;4.07;;;1.42;;
42198;SDS011;27868;45.184;5.786;2023-03-11T01:36:36;3.65;;;1.40;;
42198;SDS011;27868;45.184;5.786;2023-03-11T01:39:21;2.70;;;1.33;;
42198;SDS011;27868;45.184;5.786;2023-03-11T01:42:06;4.07;;;1.58;;
42198;SDS011;27868;45.184;5.786;2023-03-11T01:44:50;3.42;;;1.30;;
42198;SDS011;27868;45.184;5.786;2023-03-11T01:47:36;3.70;;;1.40;;
42198;SDS011;27868;45.184;5.786;2023-03-11T01:50:22;4.63;;;1.92;;
42198;SDS011;27868;45.184;5.786;2023-03-11T01:53:10;4.75;;;1.65;;
42198;SDS011;27868;45.184;5.786;2023-03-11T01:55:57;5.30;;;1.60;;
42198;SDS011;27868;45.184;5.786;2023-03-11T01:58:43;4.15;;;2.03;;
42198;SDS011;27868;45.184;5.786;2023-03-11T02:01:32;2.42;;;1.65;;
42198;SDS011;27868;45.184;5.786;2023-03-11T02:04:19;3.25;;;1.58;;
42198;SDS011;27868;45.184;5.786;2023-03-11T02:07:04;3.42;;;1.48;;
42198;SDS011;27868;45.184;5.786;2023-03-11T02:09:51;3.97;;;1.67;;
42198;SDS011;27868;45.184;5.786;2023-03-11T02:12:35;3.67;;;2.10;;
42198;SDS011;27868;45.184;5.786;2023-03-11T02:15:21;3.67;;;1.75;;
42198;SDS011;27868;45.184;5.786;2023-03-11T02:18:07;4.32;;;1.67;;
42198;SDS011;27868;45.184;5.786;2023-03-11T02:29:50;4.80;;;1.95;;
42198;SDS011;27868;45.184;5.786;2023-03-11T02:32:37;3.40;;;1.83;;
42198;SDS011;27868;45.184;5.786;2023-03-11T02:35:21;5.05;;;1.50;;
42198;SDS011;27868;45.184;5.786;2023-03-11T02:38:07;2.55;;;1.35;;
42198;SDS011;27868;45.184;5.786;2023-03-11T02:40:55;1.92;;;1.20;;
42198;SDS011;27868;45.184;5.786;2023-03-11T02:43:43;1.58;;;1.10;;
42198;SDS011;27868;45.184;5.786;2023-03-11T02:46:30;1.88;;;1.10;;
42198;SDS011;27868;45.184;5.786;2023-03-11T02:49:16;3.03;;;1.40;;
42198;SDS011;27868;45.184;5.786;2023-03-11T02:52:01;1.88;;;1.08;;
42198;SDS011;27868;45.184;5.786;2023-03-11T02:54:46;2.47;;;1.08;;
42198;SDS011;27868;45.184;5.786;2023-03-11T02:57:31;1.75;;;1.20;;
42198;SDS011;27868;45.184;5.786;2023-03-11T03:00:16;1.80;;;1.10;;
42198;SDS011;27868;45.184;5.786;2023-03-11T03:03:01;1.52;;;0.98;;
42198;SDS011;27868;45.184;5.786;2023-03-11T03:05:46;6.53;;;1.40;;
42198;SDS011;27868;45.184;5.786;2023-03-11T03:08:30;2.67;;;1.20;;
42198;SDS011;27868;45.184;5.786;2023-03-11T03:11:15;2.72;;;1.48;;
42198;SDS011;27868;45.184;5.786;2023-03-11T03:13:59;2.08;;;1.10;;
42198;SDS011;27868;45.184;5.786;2023-03-11T03:16:44;1.50;;;1.00;;
42198;SDS011;27868;45.184;5.786;2023-03-11T03:19:28;2.22;;;1.23;;
42198;SDS011;27868;45.184;5.786;2023-03-11T03:22:13;3.28;;;1.17;;
42198;SDS011;27868;45.184;5.786;2023-03-11T03:24:58;1.30;;;0.90;;
42198;SDS011;27868;45.184;5.786;2023-03-11T03:27:42;1.40;;;1.00;;
42198;SDS011;27868;45.184;5.786;2023-03-11T03:30:27;1.98;;;1.38;;
42198;SDS011;27868;45.184;5.786;2023-03-11T03:33:12;2.45;;;1.48;;
42198;SDS011;27868;45.184;5.786;2023-03-11T03:35:56;6.05;;;1.80;;
42198;SDS011;27868;45.184;5.786;2023-03-11T03:38:41;3.17;;;1.70;;
42198;SDS011;27868;45.184;5.786;2023-03-11T03:41:26;3.13;;;1.40;;
42198;SDS011;27868;45.184;5.786;2023-03-11T03:44:10;4.20;;;2.00;;
42198;SDS011;27868;45.184;5.786;2023-03-11T03:46:55;2.25;;;1.23;;
42198;SDS011;27868;45.184;5.786;2023-03-11T03:49:40;2.97;;;1.60;;
42198;SDS011;27868;45.184;5.786;2023-03-11T03:52:24;2.72;;;1.30;;
42198;SDS011;27868;45.184;5.786;2023-03-11T03:55:09;2.72;;;1.80;;
42198;SDS011;27868;45.184;5.786;2023-03-11T03:57:54;3.08;;;1.90;;
42198;SDS011;27868;45.184;5.786;2023-03-11T04:00:39;3.13;;;1.92;;
42198;SDS011;27868;45.184;5.786;2023-03-11T04:03:24;3.60;;;2.00;;
42198;SDS011;27868;45.184;5.786;2023-03-11T04:06:18;3.80;;;2.60;;
42198;SDS011;27868;45.184;5.786;2023-03-11T04:09:02;5.80;;;2.58;;
42198;SDS011;27868;45.184;5.786;2023-03-11T04:11:47;4.85;;;2.65;;
42198;SDS011;27868;45.184;5.786;2023-03-11T04:14:32;3.63;;;2.40;;
42198;SDS011;27868;45.184;5.786;2023-03-11T04:17:17;3.13;;;2.30;;
42198;SDS011;27868;45.184;5.786;2023-03-11T04:20:02;3.45;;;2.50;;
42198;SDS011;27868;45.184;5.786;2023-03-11T04:22:50;3.55;;;2.45;;
42198;SDS011;27868;45.184;5.786;2023-03-11T04:25:35;3.85;;;2.58;;
42198;SDS011;27868;45.184;5.786;2023-03-11T04:28:19;3.15;;;2.45;;
42198;SDS011;27868;45.184;5.786;2023-03-11T04:31:04;3.65;;;1.98;;
42198;SDS011;27868;45.184;5.786;2023-03-11T04:33:49;2.35;;;2.00;;
42198;SDS011;27868;45.184;5.786;2023-03-11T04:36:33;3.38;;;2.17;;
42198;SDS011;27868;45.184;5.786;2023-03-11T04:39:18;4.13;;;2.00;;
42198;SDS011;27868;45.184;5.786;2023-03-11T04:42:03;3.25;;;2.15;;
42198;SDS011;27868;45.184;5.786;2023-03-11T04:44:48;3.40;;;2.20;;
42198;SDS011;27868;45.184;5.786;2023-03-11T04:47:33;2.80;;;2.22;;
42198;SDS011;27868;45.184;5.786;2023-03-11T04:50:18;2.90;;;2.38;;
42198;SDS011;27868;45.184;5.786;2023-03-11T04:53:03;3.42;;;2.75;;
42198;SDS011;27868;45.184;5.786;2023-03-11T04:55:47;3.80;;;2.53;;
42198;SDS011;27868;45.184;5.786;2023-03-11T04:58:33;4.82;;;2.80;;
42198;SDS011;27868;45.184;5.786;2023-03-11T05:01:17;3.08;;;2.35;;
42198;SDS011;27868;45.184;5.786;2023-03-11T05:04:02;4.13;;;2.90;;
42198;SDS011;27868;45.184;5.786;2023-03-11T05:06:47;2.97;;;2.47;;
42198;SDS011;27868;45.184;5.786;2023-03-11T05:09:35;3.65;;;2.50;;
42198;SDS011;27868;45.184;5.786;2023-03-11T05:12:20;3.55;;;2.30;;
42198;SDS011;27868;45.184;5.786;2023-03-11T05:15:04;3.08;;;2.40;;
42198;SDS011;27868;45.184;5.786;2023-03-11T05:17:50;4.15;;;2.90;;
42198;SDS011;27868;45.184;5.786;2023-03-11T05:20:34;3.40;;;2.60;;
42198;SDS011;27868;45.184;5.786;2023-03-11T05:23:19;3.38;;;2.53;;
42198;SDS011;27868;45.184;5.786;2023-03-11T05:26:04;3.65;;;2.80;;
42198;SDS011;27868;45.184;5.786;2023-03-11T05:28:49;4.10;;;3.00;;
42198;SDS011;27868;45.184;5.786;2023-03-11T05:31:33;4.30;;;2.60;;
42198;SDS011;27868;45.184;5.786;2023-03-11T05:34:18;3.95;;;2.58;;
42198;SDS011;27868;45.184;5.786;2023-03-11T05:37:04;3.58;;;2.67;;
42198;SDS011;27868;45.184;5.786;2023-03-11T05:39:50;3.42;;;2.70;;
42198;SDS011;27868;45.184;5.786;2023-03-11T05:42:35;4.03;;;2.83;;
42198;SDS011;27868;45.184;5.786;2023-03-11T05:45:20;4.07;;;2.90;;
42198;SDS011;27868;45.184;5.786;2023-03-11T05:48:04;3.15;;;2.42;;
42198;SDS011;27868;45.184;5.786;2023-03-11T05:50:49;3.53;;;2.58;;
42198;SDS011;27868;45.184;5.786;2023-03-11T05:53:34;2.63;;;2.08;;
42198;SDS011;27868;45.184;5.786;2023-03-11T05:56:20;3.15;;;2.35;;
42198;SDS011;27868;45.184;5.786;2023-03-11T05:59:06;3.17;;;2.30;;
42198;SDS011;27868;45.184;5.786;2023-03-11T06:01:52;3.58;;;2.40;;
42198;SDS011;27868;45.184;5.786;2023-03-11T06:04:36;3.67;;;2.60;;
42198;SDS011;27868;45.184;5.786;2023-03-11T06:07:20;2.85;;;2.15;;
42198;SDS011;27868;45.184;5.786;2023-03-11T06:10:05;2.95;;;2.30;;
42198;SDS011;27868;45.184;5.786;2023-03-11T06:12:51;4.07;;;2.60;;
42198;SDS011;27868;45.184;5.786;2023-03-11T06:15:36;5.43;;;3.00;;
42198;SDS011;27868;45.184;5.786;2023-03-11T06:18:21;3.45;;;2.55;;
42198;SDS011;27868;45.184;5.786;2023-03-11T06:21:06;4.22;;;2.60;;
42198;SDS011;27868;45.184;5.786;2023-03-11T06:23:52;5.00;;;2.25;;
42198;SDS011;27868;45.184;5.786;2023-03-11T06:26:37;4.30;;;2.70;;
42198;SDS011;27868;45.184;5.786;2023-03-11T06:29:21;3.13;;;2.10;;
42198;SDS011;27868;45.184;5.786;2023-03-11T06:32:07;2.22;;;1.73;;
42198;SDS011;27868;45.184;5.786;2023-03-11T06:34:51;2.47;;;1.80;;
42198;SDS011;27868;45.184;5.786;2023-03-11T06:37:36;2.08;;;1.52;;
42198;SDS011;27868;45.184;5.786;2023-03-11T06:40:21;2.45;;;1.48;;
42198;SDS011;27868;45.184;5.786;2023-03-11T06:43:05;1.88;;;1.42;;
42198;SDS011;27868;45.184;5.786;2023-03-11T06:45:50;1.92;;;1.40;;
42198;SDS011;27868;45.184;5.786;2023-03-11T06:48:34;3.78;;;2.40;;
42198;SDS011;27868;45.184;5.786;2023-03-11T06:51:19;2.00;;;1.50;;
42198;SDS011;27868;45.184;5.786;2023-03-11T06:54:04;1.80;;;1.33;;
42198;SDS011;27868;45.184;5.786;2023-03-11T06:56:50;2.33;;;1.27;;
42198;SDS011;27868;45.184;5.786;2023-03-11T06:59:34;2.65;;;1.67;;
42198;SDS011;27868;45.184;5.786;2023-03-11T07:02:19;2.33;;;1.48;;
42198;SDS011;27868;45.184;5.786;2023-03-11T07:05:04;2.05;;;1.60;;
42198;SDS011;27868;45.184;5.786;2023-03-11T07:07:52;1.90;;;1.45;;
42198;SDS011;27868;45.184;5.786;2023-03-11T07:10:38;1.80;;;1.60;;
42198;SDS011;27868;45.184;5.786;2023-03-11T07:13:22;1.40;;;1.30;;
42198;SDS011;27868;45.184;5.786;2023-03-11T07:16:11;1.52;;;1.42;;
42198;SDS011;27868;45.184;5.786;2023-03-11T07:19:01;1.67;;;1.42;;
42198;SDS011;27868;45.184;5.786;2023-03-11T07:21:46;2.03;;;1.70;;
42198;SDS011;27868;45.184;5.786;2023-03-11T07:24:31;2.33;;;1.67;;
42198;SDS011;27868;45.184;5.786;2023-03-11T07:27:15;2.08;;;1.63;;
42198;SDS011;27868;45.184;5.786;2023-03-11T07:30:00;2.22;;;1.73;;
42198;SDS011;27868;45.184;5.786;2023-03-11T07:32:46;2.08;;;1.30;;
42198;SDS011;27868;45.184;5.786;2023-03-11T07:35:30;2.05;;;1.48;;
42198;SDS011;27868;45.184;5.786;2023-03-11T07:38:15;1.80;;;1.27;;
42198;SDS011;27868;45.184;5.786;2023-03-11T07:41:01;1.67;;;1.35;;
42198;SDS011;27868;45.184;5.786;2023-03-11T07:43:46;2.13;;;1.85;;
42198;SDS011;27868;45.184;5.786;2023-03-11T07:46:31;1.75;;;1.30;;
42198;SDS011;27868;45.184;5.786;2023-03-11T07:49:16;1.17;;;1.08;;
42198;SDS011;27868;45.184;5.786;2023-03-11T07:52:00;1.50;;;1.20;;
42198;SDS011;27868;45.184;5.786;2023-03-11T07:54:45;1.10;;;0.80;;
42198;SDS011;27868;45.184;5.786;2023-03-11T07:57:30;1.10;;;0.95;;
42198;SDS011;27868;45.184;5.786;2023-03-11T08:00:15;1.05;;;0.88;;
42198;SDS011;27868;45.184;5.786;2023-03-11T08:02:59;2.00;;;0.90;;
42198;SDS011;27868;45.184;5.786;2023-03-11T08:05:45;1.35;;;1.17;;
42198;SDS011;27868;45.184;5.786;2023-03-11T08:08:29;0.93;;;0.80;;
42198;SDS011;27868;45.184;5.786;2023-03-11T08:11:14;3.30;;;1.30;;
42198;SDS011;27868;45.184;5.786;2023-03-11T08:13:59;1.25;;;1.00;;
42198;SDS011;27868;45.184;5.786;2023-03-11T08:16:44;1.40;;;1.10;;
42198;SDS011;27868;45.184;5.786;2023-03-11T08:19:29;2.03;;;1.60;;
42198;SDS011;27868;45.184;5.786;2023-03-11T08:22:13;1.80;;;1.65;;
42198;SDS011;27868;45.184;5.786;2023-03-11T08:24:58;1.60;;;1.50;;
42198;SDS011;27868;45.184;5.786;2023-03-11T08:27:42;1.60;;;1.20;;
42198;SDS011;27868;45.184;5.786;2023-03-11T08:30:27;2.08;;;1.30;;
42198;SDS011;27868;45.184;5.786;2023-03-11T08:33:12;2.25;;;1.00;;
42198;SDS011;27868;45.184;5.786;2023-03-11T08:35:57;1.25;;;1.02;;
42198;SDS011;27868;45.184;5.786;2023-03-11T08:38:41;1.35;;;1.20;;
42198;SDS011;27868;45.184;5.786;2023-03-11T08:41:26;1.23;;;1.10;;
42198;SDS011;27868;45.184;5.786;2023-03-11T08:44:11;1.45;;;1.13;;
42198;SDS011;27868;45.184;5.786;2023-03-11T08:46:56;1.60;;;1.20;;
42198;SDS011;27868;45.184;5.786;2023-03-11T08:49:41;1.67;;;1.20;;
42198;SDS011;27868;45.184;5.786;2023-03-11T08:52:26;1.90;;;1.27;;
42198;SDS011;27868;45.184;5.786;2023-03-11T08:55:14;1.70;;;1.40;;
42198;SDS011;27868;45.184;5.786;2023-03-11T08:58:02;1.50;;;1.20;;
42198;SDS011;27868;45.184;5.786;2023-03-11T09:00:46;2.75;;;1.48;;
42198;SDS011;27868;45.184;5.786;2023-03-11T09:03:32;1.50;;;1.20;;
42198;SDS011;27868;45.184;5.786;2023-03-11T09:06:21;1.98;;;1.40;;
42198;SDS011;27868;45.184;5.786;2023-03-11T09:09:08;2.05;;;1.45;;
42198;SDS011;27868;45.184;5.786;2023-03-11T09:11:55;3.08;;;1.60;;
42198;SDS011;27868;45.184;5.786;2023-03-11T09:14:40;1.58;;;1.17;;
42198;SDS011;27868;45.184;5.786;2023-03-11T09:17:25;1.77;;;1.30;;
42198;SDS011;27868;45.184;5.786;2023-03-11T09:20:11;1.67;;;1.20;;
42198;SDS011;27868;45.184;5.786;2023-03-11T09:22:57;1.80;;;1.10;;
42198;SDS011;27868;45.184;5.786;2023-03-11T09:25:41;1.98;;;1.50;;
42198;SDS011;27868;45.184;5.786;2023-03-11T09:28:26;1.83;;;1.10;;
42198;SDS011;27868;45.184;5.786;2023-03-11T09:31:11;1.20;;;0.90;;
42198;SDS011;27868;45.184;5.786;2023-03-11T09:33:56;1.98;;;0.80;;
42198;SDS011;27868;45.184;5.786;2023-03-11T09:36:41;1.00;;;0.63;;
42198;SDS011;27868;45.184;5.786;2023-03-11T09:39:26;1.40;;;1.00;;
42198;SDS011;27868;45.184;5.786;2023-03-11T09:42:17;1.40;;;1.00;;
42198;SDS011;27868;45.184;5.786;2023-03-11T09:45:17;0.82;;;0.73;;
42198;SDS011;27868;45.184;5.786;2023-03-11T09:48:28;1.20;;;0.80;;
42198;SDS011;27868;45.184;5.786;2023-03-11T09:51:27;1.00;;;0.63;;
42198;SDS011;27868;45.184;5.786;2023-03-11T09:54:15;1.65;;;0.80;;
42198;SDS011;27868;45.184;5.786;2023-03-11T09:57:01;1.05;;;0.80;;
42198;SDS011;27868;45.184;5.786;2023-03-11T09:59:47;1.48;;;1.00;;
42198;SDS011;27868;45.184;5.786;2023-03-11T10:02:32;1.27;;;0.90;;
42198;SDS011;27868;45.184;5.786;2023-03-11T10:05:21;1.30;;;1.10;;
42198;SDS011;27868;45.184;5.786;2023-03-11T10:08:20;1.00;;;0.90;;
42198;SDS011;27868;45.184;5.786;2023-03-11T10:11:15;1.00;;;0.80;;
42198;SDS011;27868;45.184;5.786;2023-03-11T10:14:12;2.03;;;1.30;;
42198;SDS011;27868;45.184;5.786;2023-03-11T10:20:38;1.13;;;0.90;;
42198;SDS011;27868;45.184;5.786;2023-03-11T10:26:58;1.75;;;1.27;;
42198;SDS011;27868;45.184;5.786;2023-03-11T10:30:01;1.65;;;1.27;;
42198;SDS011;27868;45.184;5.786;2023-03-11T10:32:56;1.85;;;1.30;;
42198;SDS011;27868;45.184;5.786;2023-03-11T10:35:43;1.80;;;1.40;;
42198;SDS011;27868;45.184;5.786;2023-03-11T10:38:31;1.88;;;1.35;;
42198;SDS011;27868;45.184;5.786;2023-03-11T10:41:26;2.08;;;1.75;;
42198;SDS011;27868;45.184;5.786;2023-03-11T10:44:19;2.78;;;2.40;;
42198;SDS011;27868;45.184;5.786;2023-03-11T10:47:13;2.80;;;2.42;;
42198;SDS011;27868;45.184;5.786;2023-03-11T10:50:02;2.90;;;2.60;;
42198;SDS011;27868;45.184;5.786;2023-03-11T10:55:57;4.13;;;2.60;;
42198;SDS011;27868;45.184;5.786;2023-03-11T10:58:47;2.67;;;2.17;;
42198;SDS011;27868;45.184;5.786;2023-03-11T11:01:32;2.47;;;2.20;;
42198;SDS011;27868;45.184;5.786;2023-03-11T11:04:22;4.28;;;2.40;;
42198;SDS011;27868;45.184;5.786;2023-03-11T11:16:03;3.35;;;2.78;;
42198;SDS011;27868;45.184;5.786;2023-03-11T11:19:08;3.15;;;2.53;;
42198;SDS011;27868;45.184;5.786;2023-03-11T11:21:54;3.25;;;2.42;;
42198;SDS011;27868;45.184;5.786;2023-03-11T11:24:47;2.78;;;2.30;;
42198;SDS011;27868;45.184;5.786;2023-03-11T11:27:34;3.42;;;2.40;;
42198;SDS011;27868;45.184;5.786;2023-03-11T11:30:19;3.97;;;2.80;;
42198;SDS011;27868;45.184;5.786;2023-03-11T11:33:19;4.15;;;2.70;;
42198;SDS011;27868;45.184;5.786;2023-03-11T11:39:14;3.80;;;2.85;;
42198;SDS011;27868;45.184;5.786;2023-03-11T11:42:00;2.88;;;2.58;;
42198;SDS011;27868;45.184;5.786;2023-03-11T11:44:47;4.40;;;2.65;;
42198;SDS011;27868;45.184;5.786;2023-03-11T11:47:36;2.75;;;2.45;;
42198;SDS011;27868;45.184;5.786;2023-03-11T11:56:22;5.03;;;3.50;;
42198;SDS011;27868;45.184;5.786;2023-03-11T11:59:15;3.38;;;2.83;;
42198;SDS011;27868;45.184;5.786;2023-03-11T12:05:14;4.20;;;2.53;;
42198;SDS011;27868;45.184;5.786;2023-03-11T12:11:28;3.55;;;2.47;;
42198;SDS011;27868;45.184;5.786;2023-03-11T12:14:26;2.53;;;2.33;;
42198;SDS011;27868;45.184;5.786;2023-03-11T12:17:21;5.18;;;2.90;;
42198;SDS011;27868;45.184;5.786;2023-03-11T12:20:11;2.47;;;2.25;;
42198;SDS011;27868;45.184;5.786;2023-03-11T12:32:13;4.15;;;3.75;;
42198;SDS011;27868;45.184;5.786;2023-03-11T12:35:18;3.55;;;3.25;;
42198;SDS011;27868;45.184;5.786;2023-03-11T12:41:26;5.40;;;4.90;;
42198;SDS011;27868;45.184;5.786;2023-03-11T12:44:27;5.35;;;4.80;;
42198;SDS011;27868;45.184;5.786;2023-03-11T12:47:17;5.10;;;4.60;;
42198;SDS011;27868;45.184;5.786;2023-03-11T12:53:40;4.55;;;4.05;;
42198;SDS011;27868;45.184;5.786;2023-03-11T12:56:35;5.70;;;4.63;;
42198;SDS011;27868;45.184;5.786;2023-03-11T13:05:56;6.07;;;4.10;;
42198;SDS011;27868;45.184;5.786;2023-03-11T13:08:53;4.65;;;4.20;;
42198;SDS011;27868;45.184;5.786;2023-03-11T13:11:42;4.93;;;4.43;;
42198;SDS011;27868;45.184;5.786;2023-03-11T13:14:30;5.95;;;3.80;;
42198;SDS011;27868;45.184;5.786;2023-03-11T13:17:22;5.07;;;4.57;;
42198;SDS011;27868;45.184;5.786;2023-03-11T13:20:41;4.57;;;4.15;;
42198;SDS011;27868;45.184;5.786;2023-03-11T13:23:26;5.13;;;4.60;;
42198;SDS011;27868;45.184;5.786;2023-03-11T13:26:34;4.78;;;4.28;;
42198;SDS011;27868;45.184;5.786;2023-03-11T13:35:49;4.97;;;4.47;;
42198;SDS011;27868;45.184;5.786;2023-03-11T13:45:18;8.73;;;5.70;;
42198;SDS011;27868;45.184;5.786;2023-03-11T13:51:19;7.70;;;5.18;;
42198;SDS011;27868;45.184;5.786;2023-03-11T13:54:34;5.78;;;5.20;;
42198;SDS011;27868;45.184;5.786;2023-03-11T13:57:34;11.02;;;7.55;;
42198;SDS011;27868;45.184;5.786;2023-03-11T14:00:21;6.38;;;5.78;;
42198;SDS011;27868;45.184;5.786;2023-03-11T14:03:11;7.13;;;6.25;;
42198;SDS011;27868;45.184;5.786;2023-03-11T14:08:51;8.68;;;7.45;;
42198;SDS011;27868;45.184;5.786;2023-03-11T14:11:37;6.40;;;5.20;;
42198;SDS011;27868;45.184;5.786;2023-03-11T14:17:32;6.93;;;5.53;;
42198;SDS011;27868;45.184;5.786;2023-03-11T14:20:18;6.57;;;5.55;;
42198;SDS011;27868;45.184;5.786;2023-03-11T14:23:15;6.65;;;5.70;;
42198;SDS011;27868;45.184;5.786;2023-03-11T14:26:04;7.50;;;5.40;;
42198;SDS011;27868;45.184;5.786;2023-03-11T14:28:52;6.18;;;5.50;;
42198;SDS011;27868;45.184;5.786;2023-03-11T14:31:44;7.18;;;5.95;;
42198;SDS011;27868;45.184;5.786;2023-03-11T14:34:30;7.93;;;6.47;;
42198;SDS011;27868;45.184;5.786;2023-03-11T14:37:23;5.25;;;4.70;;
42198;SDS011;27868;45.184;5.786;2023-03-11T14:43:09;7.35;;;4.70;;
42198;SDS011;27868;45.184;5.786;2023-03-11T14:45:55;6.15;;;4.78;;
42198;SDS011;27868;45.184;5.786;2023-03-11T14:48:40;8.35;;;5.03;;
42198;SDS011;27868;45.184;5.786;2023-03-11T14:51:27;6.82;;;4.80;;
42198;SDS011;27868;45.184;5.786;2023-03-11T14:54:20;6.38;;;4.90;;
42198;SDS011;27868;45.184;5.786;2023-03-11T14:57:17;6.03;;;5.30;;
42198;SDS011;27868;45.184;5.786;2023-03-11T15:00:20;6.95;;;5.20;;
42198;SDS011;27868;45.184;5.786;2023-03-11T15:03:22;6.45;;;5.15;;
42198;SDS011;27868;45.184;5.786;2023-03-11T15:06:13;6.78;;;5.47;;
42198;SDS011;27868;45.184;5.786;2023-03-11T15:09:01;6.70;;;5.15;;
42198;SDS011;27868;45.184;5.786;2023-03-11T15:14:48;7.53;;;5.80;;
42198;SDS011;27868;45.184;5.786;2023-03-11T15:17:34;6.88;;;5.97;;
42198;SDS011;27868;45.184;5.786;2023-03-11T15:20:23;6.43;;;5.57;;
42198;SDS011;27868;45.184;5.786;2023-03-11T15:23:18;6.82;;;5.88;;
42198;SDS011;27868;45.184;5.786;2023-03-11T15:26:05;6.78;;;5.80;;
42198;SDS011;27868;45.184;5.786;2023-03-11T15:29:13;7.10;;;5.80;;
42198;SDS011;27868;45.184;5.786;2023-03-11T15:31:59;6.57;;;5.78;;
42198;SDS011;27868;45.184;5.786;2023-03-11T15:38:10;7.13;;;5.03;;
42198;SDS011;27868;45.184;5.786;2023-03-11T15:41:01;6.25;;;5.18;;
42198;SDS011;27868;45.184;5.786;2023-03-11T15:43:46;12.40;;;7.18;;
42198;SDS011;27868;45.184;5.786;2023-03-11T15:46:32;6.63;;;5.03;;
42198;SDS011;27868;45.184;5.786;2023-03-11T15:49:17;5.75;;;5.15;;
42198;SDS011;27868;45.184;5.786;2023-03-11T15:52:02;6.15;;;5.25;;
42198;SDS011;27868;45.184;5.786;2023-03-11T15:54:47;6.85;;;5.32;;
42198;SDS011;27868;45.184;5.786;2023-03-11T15:57:31;7.75;;;5.47;;
42198;SDS011;27868;45.184;5.786;2023-03-11T16:00:18;6.95;;;5.50;;
42198;SDS011;27868;45.184;5.786;2023-03-11T16:03:05;10.02;;;5.40;;
42198;SDS011;27868;45.184;5.786;2023-03-11T16:05:50;7.68;;;5.72;;
42198;SDS011;27868;45.184;5.786;2023-03-11T16:08:34;9.80;;;7.28;;
42198;SDS011;27868;45.184;5.786;2023-03-11T16:11:19;8.63;;;6.63;;
42198;SDS011;27868;45.184;5.786;2023-03-11T16:14:04;6.13;;;5.38;;
42198;SDS011;27868;45.184;5.786;2023-03-11T16:16:49;8.25;;;6.15;;
42198;SDS011;27868;45.184;5.786;2023-03-11T16:19:34;6.85;;;5.35;;
42198;SDS011;27868;45.184;5.786;2023-03-11T16:22:20;8.13;;;5.00;;
42198;SDS011;27868;45.184;5.786;2023-03-11T16:25:19;6.00;;;5.03;;
42198;SDS011;27868;45.184;5.786;2023-03-11T16:28:15;9.75;;;6.45;;
42198;SDS011;27868;45.184;5.786;2023-03-11T16:31:00;7.88;;;6.10;;
42198;SDS011;27868;45.184;5.786;2023-03-11T16:33:46;8.02;;;5.45;;
42198;SDS011;27868;45.184;5.786;2023-03-11T16:36:30;5.57;;;5.05;;
42198;SDS011;27868;45.184;5.786;2023-03-11T16:39:15;6.68;;;5.22;;
42198;SDS011;27868;45.184;5.786;2023-03-11T16:41:59;6.50;;;5.32;;
42198;SDS011;27868;45.184;5.786;2023-03-11T16:44:44;10.40;;;5.30;;
42198;SDS011;27868;45.184;5.786;2023-03-11T16:47:29;7.50;;;4.90;;
42198;SDS011;27868;45.184;5.786;2023-03-11T16:50:13;9.05;;;4.88;;
42198;SDS011;27868;45.184;5.786;2023-03-11T16:52:58;6.90;;;4.45;;
42198;SDS011;27868;45.184;5.786;2023-03-11T16:55:44;5.93;;;4.65;;
42198;SDS011;27868;45.184;5.786;2023-03-11T16:58:29;7.47;;;5.05;;
42198;SDS011;27868;45.184;5.786;2023-03-11T17:01:14;6.40;;;5.47;;
42198;SDS011;27868;45.184;5.786;2023-03-11T17:04:01;6.90;;;5.88;;
42198;SDS011;27868;45.184;5.786;2023-03-11T17:06:46;13.70;;;8.75;;
42198;SDS011;27868;45.184;5.786;2023-03-11T17:09:32;9.15;;;6.53;;
42198;SDS011;27868;45.184;5.786;2023-03-11T17:12:17;8.65;;;5.70;;
42198;SDS011;27868;45.184;5.786;2023-03-11T17:15:03;7.35;;;5.43;;
42198;SDS011;27868;45.184;5.786;2023-03-11T17:17:49;5.82;;;5.10;;
42198;SDS011;27868;45.184;5.786;2023-03-11T17:20:36;9.10;;;6.25;;
42198;SDS011;27868;45.184;5.786;2023-03-11T17:23:22;7.57;;;6.10;;
42198;SDS011;27868;45.184;5.786;2023-03-11T17:26:08;9.30;;;6.57;;
42198;SDS011;27868;45.184;5.786;2023-03-11T17:28:54;12.52;;;9.30;;
42198;SDS011;27868;45.184;5.786;2023-03-11T17:31:38;9.75;;;6.57;;
42198;SDS011;27868;45.184;5.786;2023-03-11T17:34:23;6.03;;;4.85;;
42198;SDS011;27868;45.184;5.786;2023-03-11T17:37:07;5.53;;;4.18;;
42198;SDS011;27868;45.184;5.786;2023-03-11T17:39:52;4.70;;;3.90;;
42198;SDS011;27868;45.184;5.786;2023-03-11T17:42:37;6.05;;;4.72;;
42198;SDS011;27868;45.184;5.786;2023-03-11T17:45:22;7.18;;;5.38;;
42198;SDS011;27868;45.184;5.786;2023-03-11T17:48:07;8.00;;;5.03;;
42198;SDS011;27868;45.184;5.786;2023-03-11T17:50:52;6.43;;;4.80;;
42198;SDS011;27868;45.184;5.786;2023-03-11T17:53:38;6.43;;;4.72;;
42198;SDS011;27868;45.184;5.786;2023-03-11T17:56:24;6.03;;;4.93;;
42198;SDS011;27868;45.184;5.786;2023-03-11T17:59:09;6.03;;;4.90;;
42198;SDS011;27868;45.184;5.786;2023-03-11T18:01:53;6.72;;;5.10;;
42198;SDS011;27868;45.184;5.786;2023-03-11T18:04:38;7.25;;;5.13;;
42198;SDS011;27868;45.184;5.786;2023-03-11T18:07:24;8.48;;;5.97;;
42198;SDS011;27868;45.184;5.786;2023-03-11T18:10:10;9.23;;;6.97;;
42198;SDS011;27868;45.184;5.786;2023-03-11T18:12:56;8.50;;;6.25;;
42198;SDS011;27868;45.184;5.786;2023-03-11T18:15:40;8.98;;;6.13;;
42198;SDS011;27868;45.184;5.786;2023-03-11T18:18:25;7.35;;;5.88;;
42198;SDS011;27868;45.184;5.786;2023-03-11T18:21:15;10.57;;;7.53;;
42198;SDS011;27868;45.184;5.786;2023-03-11T18:24:04;12.57;;;9.02;;